Governador Jorge Teixeira, Brazil
Current Conditions -  °F | °C
As of 5:00 PM on Saturday 22 Nov 2014 (Local Time) from SBPV Reporting Station
Scattered Clouds Scattered Clouds  
Wind Chill: 88°   Ceiling: Unl
Heat Index: 94°   Visibility: 6mi
Dew Point: 72°   Wind: 9mph
Humidity: 58%   Direction: 50°NE
Pressure: 29.68"   Gusts: NA
Location:  10.53°S, 62.64°W
Report Text: SBPV 222100Z 05008KT 9999 SCT023 FEW025TCU SCT100 31/22 Q1005
Loading
Personal Weather Stations






























Interactive Weather Map New forecast layout! Learn more

10-Day Weather Forecast

Advertisements
Track Severe Weather on mobile